Time;durP1;ratioP1;P1;durP2;ratioP2;P2;SDS_P1;SDS_P2;PMS_P1;PMS_P2;Temp;Humidity;BMP_temperature;BMP_pressure;BME280_temperature;BME280_humidity;BME280_pressure;Samples;Min_cycle;Max_cycle;Signal;HPM_P1;HPM_P2
2021/07/17 00:01:08;;;;;;;26.83;23.83;;;20.80;99.90;;;;;;5012673;28;20175;-54
2021/07/17 00:03:34;;;;;;;27.53;24.57;;;20.90;99.90;;;;;;5012613;28;20748;-55
2021/07/17 00:05:59;;;;;;;29.00;25.43;;;20.80;99.90;;;;;;5021459;28;20429;-54
2021/07/17 00:08:26;;;;;;;30.80;23.13;;;20.80;99.90;;;;;;5013268;28;20665;-53
2021/07/17 00:10:51;;;;;;;30.30;23.47;;;20.90;99.90;;;;;;5032008;28;20241;-50
2021/07/17 00:13:18;;;;;;;30.70;23.10;;;20.90;99.90;;;;;;5029866;28;20445;-55
2021/07/17 00:15:45;;;;;;;29.20;24.90;;;20.80;99.90;;;;;;5031769;28;20217;-53
2021/07/17 00:18:12;;;;;;;29.47;23.67;;;20.80;99.90;;;;;;5031829;28;20460;-55
2021/07/17 00:20:38;;;;;;;31.45;24.48;;;20.80;99.90;;;;;;5031126;28;20897;-53
2021/07/17 00:23:04;;;;;;;30.53;24.33;;;20.90;99.90;;;;;;5048486;28;20205;-55
2021/07/17 00:25:29;;;;;;;25.83;22.70;;;21.00;99.90;;;;;;5051047;28;20174;-53
2021/07/17 00:27:55;;;;;;;29.83;22.80;;;21.00;99.90;;;;;;5030109;28;20596;-56
2021/07/17 00:30:21;;;;;;;32.00;24.03;;;21.00;99.90;;;;;;5030031;28;20201;-51
2021/07/17 00:32:47;;;;;;;25.13;22.43;;;20.90;99.90;;;;;;5031545;28;20174;-54
2021/07/17 00:35:13;;;;;;;25.90;23.10;;;20.90;99.90;;;;;;5030057;28;20984;-52
2021/07/17 00:37:38;;;;;;;26.83;23.20;;;21.00;99.90;;;;;;5012209;28;20165;-52
2021/07/17 00:40:06;;;;;;;26.77;22.57;;;21.00;99.90;;;;;;5029368;28;20262;-53
2021/07/17 00:42:32;;;;;;;31.70;23.93;;;21.10;99.90;;;;;;5029514;28;20195;-53
2021/07/17 00:44:58;;;;;;;28.70;22.83;;;21.00;99.90;;;;;;5031554;28;20808;-53
2021/07/17 00:47:24;;;;;;;25.63;22.90;;;21.00;99.90;;;;;;5028645;28;20406;-52
2021/07/17 00:49:50;;;;;;;29.50;22.00;;;21.00;99.90;;;;;;5018221;28;20183;-52
2021/07/17 00:52:15;;;;;;;26.60;22.17;;;21.00;99.90;;;;;;5039586;28;20408;-54
2021/07/17 00:54:42;;;;;;;31.70;21.73;;;21.00;99.90;;;;;;5030338;28;20433;-51
2021/07/17 00:57:09;;;;;;;23.53;20.93;;;21.00;99.90;;;;;;5031048;28;20193;-54
2021/07/17 00:59:36;;;;;;;24.97;20.93;;;21.00;99.90;;;;;;5029364;28;20429;-51
2021/07/17 01:02:03;;;;;;;27.43;23.03;;;21.00;99.90;;;;;;5030513;28;20921;-53
2021/07/17 01:04:29;;;;;;;27.20;22.33;;;20.90;99.90;;;;;;5030838;28;20432;-54
2021/07/17 01:06:59;;;;;;;27.60;23.57;;;21.00;99.90;;;;;;5026095;28;20425;-55
2021/07/17 01:09:28;;;;;;;28.73;23.00;;;20.90;99.90;;;;;;5030722;28;20954;-52
2021/07/17 01:11:56;;;;;;;25.73;22.93;;;21.00;99.90;;;;;;5013126;28;20186;-55
2021/07/17 01:14:22;;;;;;;25.93;22.40;;;21.00;99.90;;;;;;5024783;28;20441;-52
2021/07/17 01:16:48;;;;;;;31.40;23.70;;;21.00;99.90;;;;;;5030273;28;20496;-54
2021/07/17 01:19:13;;;;;;;28.97;23.90;;;21.00;99.90;;;;;;5028857;28;20265;-54
2021/07/17 01:21:39;;;;;;;29.80;23.13;;;21.00;99.90;;;;;;5030684;28;20185;-53
2021/07/17 01:24:05;;;;;;;27.43;23.47;;;21.00;99.90;;;;;;5030603;28;20190;-51
2021/07/17 01:26:31;;;;;;;31.27;23.40;;;21.00;99.90;;;;;;5030464;28;20923;-50
2021/07/17 01:28:57;;;;;;;29.70;24.00;;;21.00;99.90;;;;;;5021118;28;20197;-52
2021/07/17 01:31:23;;;;;;;29.27;25.00;;;21.00;99.90;;;;;;5013109;28;20789;-53
2021/07/17 01:33:48;;;;;;;28.03;24.17;;;21.00;99.90;;;;;;5029795;28;20757;-55
2021/07/17 01:36:14;;;;;;;29.00;23.83;;;20.90;99.90;;;;;;5030587;28;20224;-51
2021/07/17 01:38:41;;;;;;;33.37;24.67;;;21.00;99.90;;;;;;5027340;28;20578;-53
2021/07/17 01:41:09;;;;;;;30.57;23.27;;;21.00;99.90;;;;;;5030102;28;20269;-55
2021/07/17 01:43:34;;;;;;;35.00;24.98;;;21.00;99.90;;;;;;5029631;28;20428;-55
2021/07/17 01:46:01;;;;;;;26.30;22.77;;;21.00;99.90;;;;;;5010125;28;20290;-53
2021/07/17 01:48:27;;;;;;;28.63;23.73;;;21.20;99.90;;;;;;5029919;28;20620;-51
2021/07/17 01:50:53;;;;;;;33.63;25.10;;;21.10;99.90;;;;;;5030220;28;20513;-53
2021/07/17 01:53:19;;;;;;;29.70;24.70;;;21.10;99.90;;;;;;5041383;28;20219;-52
2021/07/17 01:55:44;;;;;;;28.10;24.63;;;21.00;99.90;;;;;;5027827;28;20504;-55
2021/07/17 01:58:10;;;;;;;30.20;24.97;;;21.00;99.90;;;;;;5030066;28;20478;-53
2021/07/17 02:00:36;;;;;;;30.43;27.13;;;21.00;99.90;;;;;;5029888;28;20174;-55
2021/07/17 02:03:03;;;;;;;30.93;25.57;;;21.00;99.90;;;;;;5023551;28;20448;-54
2021/07/17 02:05:28;;;;;;;31.63;24.87;;;21.00;99.90;;;;;;5027003;28;20187;-54
2021/07/17 02:07:54;;;;;;;34.03;26.00;;;21.00;99.90;;;;;;5027473;28;20799;-55
2021/07/17 02:10:25;;;;;;;32.53;25.10;;;21.00;99.90;;;;;;5029574;28;20676;-52
2021/07/17 02:13:07;;;;;;;29.03;25.90;;;21.00;99.90;;;;;;5030052;28;20194;-51
2021/07/17 02:15:43;;;;;;;36.07;27.43;;;21.00;99.90;;;;;;5022112;28;20987;-56
2021/07/17 02:18:09;;;;;;;36.67;27.03;;;20.90;99.90;;;;;;5029396;28;20992;-57
2021/07/17 02:20:35;;;;;;;32.00;28.43;;;20.80;99.90;;;;;;5028962;28;20475;-57
2021/07/17 02:23:01;;;;;;;37.00;29.97;;;20.70;99.90;;;;;;5029591;28;20891;-52
2021/07/17 02:25:26;;;;;;;33.37;29.43;;;20.60;99.90;;;;;;5027618;28;20197;-56
2021/07/17 02:27:52;;;;;;;36.47;31.30;;;20.60;99.90;;;;;;5010913;28;20273;-52
2021/07/17 02:30:18;;;;;;;39.03;30.23;;;20.50;99.90;;;;;;5029662;28;20223;-54
2021/07/17 02:32:44;;;;;;;35.93;30.70;;;20.50;99.90;;;;;;5025317;28;20432;-53
2021/07/17 02:35:10;;;;;;;40.07;32.90;;;20.50;99.90;;;;;;5028765;28;20981;-57
2021/07/17 02:37:36;;;;;;;40.47;33.93;;;20.40;99.90;;;;;;5027185;28;20185;-55
2021/07/17 02:40:03;;;;;;;40.53;31.00;;;20.40;99.90;;;;;;5028849;28;20425;-51
2021/07/17 02:42:29;;;;;;;47.00;32.93;;;20.40;99.90;;;;;;5029087;28;20261;-55
2021/07/17 02:44:54;;;;;;;37.37;32.70;;;20.30;99.90;;;;;;5029216;28;20488;-57
2021/07/17 02:47:20;;;;;;;48.97;34.60;;;20.30;99.90;;;;;;5028418;28;20191;-56
2021/07/17 02:49:45;;;;;;;43.57;33.83;;;20.20;99.90;;;;;;5029391;28;20783;-54
2021/07/17 02:52:11;;;;;;;45.47;32.53;;;20.20;99.90;;;;;;5025428;28;20225;-57
2021/07/17 02:54:37;;;;;;;43.67;34.77;;;20.10;99.90;;;;;;5028810;28;20184;-55
2021/07/17 02:57:02;;;;;;;41.87;33.80;;;20.10;99.90;;;;;;5028599;28;20217;-53
2021/07/17 02:59:28;;;;;;;40.10;33.20;;;20.10;99.90;;;;;;5027739;28;20249;-56
2021/07/17 03:01:53;;;;;;;44.87;32.77;;;20.10;99.90;;;;;;5033592;28;20197;-57
2021/07/17 03:04:19;;;;;;;38.93;32.03;;;20.10;99.90;;;;;;5033180;28;21064;-55
2021/07/17 03:06:44;;;;;;;43.20;34.30;;;20.00;99.90;;;;;;5031448;28;20228;-56
2021/07/17 03:09:10;;;;;;;43.53;34.53;;;20.10;99.90;;;;;;5033020;28;20205;-56
2021/07/17 03:11:36;;;;;;;46.70;34.13;;;20.10;99.90;;;;;;5031793;28;20187;-57
2021/07/17 03:14:02;;;;;;;41.37;33.77;;;20.10;99.90;;;;;;5032400;28;20236;-59
2021/07/17 03:16:30;;;;;;;43.77;34.00;;;20.10;99.90;;;;;;5032893;28;20231;-57
2021/07/17 03:18:55;;;;;;;47.10;32.80;;;20.00;99.90;;;;;;5031778;28;20829;-58
2021/07/17 03:21:21;;;;;;;43.53;34.07;;;20.00;99.90;;;;;;5033317;28;20419;-58
2021/07/17 03:23:47;;;;;;;45.93;34.30;;;20.00;99.90;;;;;;5031129;28;20189;-53
2021/07/17 03:26:12;;;;;;;45.80;33.67;;;20.00;99.90;;;;;;5031915;28;20264;-58
2021/07/17 03:28:38;;;;;;;42.90;33.70;;;20.00;99.90;;;;;;5031912;28;20183;-57
2021/07/17 03:31:04;;;;;;;40.20;33.67;;;20.10;99.90;;;;;;5032556;28;20193;-56
2021/07/17 03:33:29;;;;;;;41.93;33.10;;;20.10;99.90;;;;;;5031097;28;20201;-58
2021/07/17 03:35:57;;;;;;;47.70;35.03;;;20.20;99.90;;;;;;5032303;28;20601;-55
2021/07/17 03:38:23;;;;;;;42.03;34.13;;;20.10;99.90;;;;;;5032556;28;20257;-58
2021/07/17 03:40:49;;;;;;;41.77;32.30;;;20.10;99.90;;;;;;5030748;28;20523;-59
2021/07/17 03:43:15;;;;;;;41.77;33.30;;;20.10;99.90;;;;;;5031741;28;20515;-60
2021/07/17 03:45:40;;;;;;;43.17;31.87;;;20.10;99.90;;;;;;5032517;28;20190;-58
2021/07/17 03:48:06;;;;;;;43.37;30.53;;;20.10;99.90;;;;;;5032359;28;20261;-59
2021/07/17 03:50:32;;;;;;;39.00;31.33;;;20.00;99.90;;;;;;5026411;28;21116;-58
2021/07/17 03:52:58;;;;;;;38.07;28.77;;;20.00;99.90;;;;;;5033425;28;20229;-60
2021/07/17 03:55:23;;;;;;;34.27;28.90;;;20.00;99.90;;;;;;5032304;28;20478;-57
2021/07/17 03:57:49;;;;;;;39.87;30.63;;;20.00;99.90;;;;;;5031851;28;20198;-58
2021/07/17 04:00:15;;;;;;;37.63;30.73;;;20.00;99.90;;;;;;5030572;28;20182;-59
2021/07/17 04:02:42;;;;;;;37.60;31.83;;;20.00;99.90;;;;;;5032136;28;20193;-58
2021/07/17 04:05:10;;;;;;;39.10;30.47;;;19.90;99.90;;;;;;5031975;28;20426;-59
2021/07/17 04:07:36;;;;;;;37.20;30.87;;;19.90;99.90;;;;;;5031828;28;20415;-58
2021/07/17 04:10:03;;;;;;;34.23;30.53;;;20.00;99.90;;;;;;5013088;28;20457;-55
2021/07/17 04:12:30;;;;;;;39.15;30.52;;;20.00;99.90;;;;;;5031873;28;20491;-56
2021/07/17 04:14:56;;;;;;;35.30;28.20;;;20.10;99.90;;;;;;5031621;28;20194;-56
2021/07/17 04:17:21;;;;;;;34.70;30.20;;;20.00;99.90;;;;;;5029690;28;20224;-54
2021/07/17 04:19:47;;;;;;;36.53;29.17;;;20.10;99.90;;;;;;5031505;28;20189;-58
2021/07/17 04:22:12;;;;;;;35.83;29.43;;;20.00;99.90;;;;;;5031822;28;20234;-58
2021/07/17 04:24:39;;;;;;;32.63;28.20;;;20.10;99.90;;;;;;5030017;28;20211;-58
2021/07/17 04:27:05;;;;;;;37.77;29.60;;;20.10;99.90;;;;;;5031837;28;20431;-59
2021/07/17 04:29:30;;;;;;;36.80;29.30;;;20.10;99.90;;;;;;5031491;28;20263;-57
2021/07/17 04:31:56;;;;;;;31.70;28.37;;;20.00;99.90;;;;;;5029777;28;20589;-56
2021/07/17 04:34:22;;;;;;;34.00;29.00;;;20.00;99.90;;;;;;5031547;28;20234;-60
2021/07/17 04:36:48;;;;;;;35.03;27.63;;;20.00;99.90;;;;;;5031509;28;20225;-57
2021/07/17 04:39:14;;;;;;;32.92;27.65;;;20.00;99.90;;;;;;5027285;28;20448;-57
2021/07/17 04:41:39;;;;;;;31.07;25.30;;;20.00;99.90;;;;;;5030484;28;20202;-56
2021/07/17 04:44:05;;;;;;;30.33;24.47;;;20.10;99.90;;;;;;5029134;28;20192;-57
2021/07/17 04:46:31;;;;;;;29.00;23.80;;;20.10;99.90;;;;;;5024069;28;20198;-54
2021/07/17 04:48:56;;;;;;;29.43;23.97;;;20.10;99.90;;;;;;5018009;28;20557;-57
2021/07/17 04:51:22;;;;;;;28.20;23.70;;;20.00;99.90;;;;;;5032222;28;20576;-54
2021/07/17 04:53:47;;;;;;;26.33;23.60;;;20.00;99.90;;;;;;5032761;28;20207;-53
2021/07/17 04:56:13;;;;;;;26.53;22.80;;;20.10;99.90;;;;;;5030975;28;20213;-55
2021/07/17 04:58:38;;;;;;;25.13;22.07;;;20.10;99.90;;;;;;5030422;28;20222;-55
2021/07/17 05:01:04;;;;;;;27.30;21.73;;;20.10;99.90;;;;;;5029115;28;20189;-55
2021/07/17 05:03:29;;;;;;;25.80;22.10;;;20.10;99.90;;;;;;5031202;28;20197;-52
2021/07/17 05:05:55;;;;;;;24.63;21.90;;;20.10;99.90;;;;;;5012774;28;20198;-55
2021/07/17 05:08:20;;;;;;;23.00;20.80;;;20.10;99.90;;;;;;5031068;28;20196;-55
2021/07/17 05:10:46;;;;;;;27.63;21.70;;;20.10;99.90;;;;;;5027636;28;20191;-56
2021/07/17 05:13:12;;;;;;;30.10;22.90;;;20.10;99.90;;;;;;5019031;28;20193;-56
2021/07/17 05:15:39;;;;;;;27.00;24.10;;;20.10;99.90;;;;;;5030937;28;20214;-57
2021/07/17 05:18:05;;;;;;;25.87;23.13;;;20.10;99.90;;;;;;5029255;28;20475;-56
2021/07/17 05:20:30;;;;;;;25.40;22.20;;;20.10;99.90;;;;;;5028909;28;20435;-55
2021/07/17 05:22:56;;;;;;;25.10;22.10;;;20.00;99.90;;;;;;5030542;28;20235;-55
2021/07/17 05:25:21;;;;;;;26.03;23.37;;;20.00;99.90;;;;;;5030602;28;20191;-53
2021/07/17 05:27:47;;;;;;;26.80;23.80;;;20.00;99.90;;;;;;5029426;28;20182;-55
2021/07/17 05:30:13;;;;;;;29.97;24.23;;;20.00;99.90;;;;;;5029924;28;20181;-54
2021/07/17 05:32:39;;;;;;;28.73;23.87;;;20.00;99.90;;;;;;5029933;28;20186;-55
2021/07/17 05:35:05;;;;;;;26.53;23.73;;;20.00;99.90;;;;;;5028016;28;20946;-57
2021/07/17 05:37:30;;;;;;;26.40;23.60;;;20.00;99.90;;;;;;5030376;28;20596;-57
2021/07/17 05:39:57;;;;;;;26.00;23.40;;;20.10;99.90;;;;;;5030411;28;20504;-58
2021/07/17 05:42:23;;;;;;;25.63;22.93;;;20.10;99.90;;;;;;5009259;28;20586;-58
2021/07/17 05:44:49;;;;;;;27.80;24.80;;;20.00;99.90;;;;;;5010473;28;20753;-57
2021/07/17 05:47:15;;;;;;;29.60;25.27;;;20.00;99.90;;;;;;5015833;28;20448;-57
2021/07/17 05:49:41;;;;;;;27.97;24.87;;;20.00;99.90;;;;;;5030014;28;20265;-54
2021/07/17 05:52:06;;;;;;;29.98;26.52;;;20.00;99.90;;;;;;5037408;28;20168;-57
2021/07/17 05:54:32;;;;;;;29.53;26.37;;;20.10;99.90;;;;;;5023103;28;20197;-56
2021/07/17 05:56:58;;;;;;;34.00;25.50;;;20.10;99.90;;;;;;5010356;28;20247;-55
2021/07/17 05:59:23;;;;;;;30.40;27.17;;;20.00;99.90;;;;;;5026733;28;20204;-51
2021/07/17 06:01:49;;;;;;;34.27;26.77;;;20.00;99.90;;;;;;5029784;28;20270;-51
2021/07/17 06:04:14;;;;;;;36.13;27.40;;;20.10;99.90;;;;;;5028078;28;20203;-57
2021/07/17 06:06:40;;;;;;;30.63;25.73;;;20.10;99.90;;;;;;5029661;28;20259;-56
2021/07/17 06:09:05;;;;;;;33.97;28.00;;;20.10;99.90;;;;;;5029020;28;20194;-55
2021/07/17 06:11:31;;;;;;;36.37;27.90;;;20.10;99.90;;;;;;5027937;28;20676;-57
2021/07/17 06:13:56;;;;;;;35.33;29.13;;;20.20;99.90;;;;;;5029639;28;20211;-56
2021/07/17 06:16:22;;;;;;;35.17;28.67;;;20.20;99.90;;;;;;5027376;28;20222;-62
2021/07/17 06:18:47;;;;;;;34.10;27.47;;;20.30;99.90;;;;;;5029596;28;20201;-64
2021/07/17 06:21:13;;;;;;;32.67;28.43;;;20.30;99.90;;;;;;5021102;28;20327;-63
2021/07/17 06:23:39;;;;;;;37.77;28.60;;;20.30;99.90;;;;;;5024176;28;20356;-63
2021/07/17 06:26:05;;;;;;;33.20;27.70;;;20.30;99.90;;;;;;5026724;28;20193;-62
2021/07/17 06:28:31;;;;;;;39.70;29.70;;;20.20;99.90;;;;;;5026629;28;20439;-62
2021/07/17 06:30:57;;;;;;;35.60;28.33;;;20.30;99.90;;;;;;5028121;28;20431;-63
2021/07/17 06:33:23;;;;;;;35.37;29.23;;;20.20;99.90;;;;;;5027643;28;20556;-63
2021/07/17 06:35:48;;;;;;;38.13;29.70;;;20.20;99.90;;;;;;5024297;28;20210;-63
2021/07/17 06:38:14;;;;;;;34.40;29.53;;;20.20;99.90;;;;;;5027441;28;20432;-62
2021/07/17 06:40:40;;;;;;;37.57;30.43;;;20.20;99.90;;;;;;5027510;28;20675;-63
2021/07/17 06:43:05;;;;;;;43.53;30.90;;;20.20;99.90;;;;;;5027468;28;20205;-63
2021/07/17 06:45:31;;;;;;;39.60;29.90;;;20.20;99.90;;;;;;5027059;28;20672;-64
2021/07/17 06:47:56;;;;;;;39.23;29.50;;;20.20;99.90;;;;;;5028354;28;20541;-64
2021/07/17 06:50:23;;;;;;;34.57;30.70;;;20.10;99.90;;;;;;5023542;28;20530;-65
2021/07/17 06:52:49;;;;;;;33.23;29.03;;;20.10;99.90;;;;;;5030243;28;20213;-62
2021/07/17 06:55:15;;;;;;;38.25;30.88;;;20.10;99.90;;;;;;5006920;28;20477;-61
2021/07/17 06:57:42;;;;;;;34.90;29.23;;;20.10;99.90;;;;;;5028429;28;20522;-63
2021/07/17 07:00:10;;;;;;;37.37;29.30;;;20.10;99.90;;;;;;5027124;28;20761;-66
2021/07/17 07:02:36;;;;;;;39.37;28.97;;;20.10;99.90;;;;;;5024510;28;20419;-63
2021/07/17 07:05:03;;;;;;;41.67;29.20;;;20.10;99.90;;;;;;5025435;28;20787;-64
2021/07/17 07:07:28;;;;;;;34.10;29.10;;;20.00;99.90;;;;;;5027482;28;20421;-64
2021/07/17 07:09:54;;;;;;;38.97;29.83;;;20.00;99.90;;;;;;5027364;28;20420;-64
2021/07/17 07:12:19;;;;;;;41.13;29.40;;;20.10;99.90;;;;;;5009193;28;20186;-64
2021/07/17 07:14:45;;;;;;;36.57;29.47;;;20.00;99.90;;;;;;5027481;28;20184;-64
2021/07/17 07:17:10;;;;;;;38.77;29.63;;;20.00;99.90;;;;;;5027928;28;20257;-64
2021/07/17 07:19:36;;;;;;;33.77;28.33;;;20.10;99.90;;;;;;5026791;28;20970;-64
2021/07/17 07:22:03;;;;;;;32.13;28.17;;;20.00;99.90;;;;;;5027562;28;20244;-64
2021/07/17 07:24:29;;;;;;;35.27;28.87;;;20.10;99.90;;;;;;5027576;28;20182;-63
2021/07/17 07:26:56;;;;;;;35.47;28.90;;;20.10;99.90;;;;;;5026196;28;20444;-63
2021/07/17 07:29:24;;;;;;;34.08;28.88;;;20.10;99.90;;;;;;5027313;28;20416;-63
2021/07/17 07:31:51;;;;;;;36.03;27.50;;;20.20;99.90;;;;;;5027905;28;20197;-63
2021/07/17 07:34:17;;;;;;;36.07;27.27;;;20.20;99.90;;;;;;5020162;28;20448;-63
2021/07/17 07:36:43;;;;;;;34.17;27.43;;;20.20;99.90;;;;;;5027691;28;20468;-63
2021/07/17 07:39:09;;;;;;;44.10;28.23;;;20.20;99.90;;;;;;5027403;28;20424;-63
2021/07/17 07:41:34;;;;;;;37.23;26.20;;;20.20;99.90;;;;;;5027488;28;20248;-63
2021/07/17 07:44:00;;;;;;;31.67;25.90;;;20.20;99.90;;;;;;5028167;28;20443;-64
2021/07/17 07:46:26;;;;;;;33.07;24.13;;;20.10;99.90;;;;;;5027092;28;20220;-64
2021/07/17 07:48:52;;;;;;;23.83;21.30;;;20.10;99.90;;;;;;5029858;28;20192;-63
2021/07/17 07:51:17;;;;;;;25.40;22.70;;;20.10;99.90;;;;;;5032058;28;20569;-63
2021/07/17 07:53:43;;;;;;;28.13;24.17;;;20.10;99.90;;;;;;5035940;28;20286;-63
2021/07/17 07:56:08;;;;;;;25.60;21.80;;;20.00;99.90;;;;;;5031116;28;20223;-65
2021/07/17 07:58:34;;;;;;;23.30;20.90;;;20.10;99.90;;;;;;5029520;28;20188;-63
2021/07/17 08:01:00;;;;;;;20.70;18.70;;;20.10;99.90;;;;;;5030260;28;20660;-65
2021/07/17 08:03:25;;;;;;;22.20;19.27;;;20.20;99.90;;;;;;5030958;28;20197;-63
2021/07/17 08:05:51;;;;;;;21.47;19.10;;;20.20;99.90;;;;;;5029160;28;20194;-63
2021/07/17 08:08:16;;;;;;;17.30;15.70;;;20.30;99.90;;;;;;5030991;28;21028;-63
2021/07/17 08:10:42;;;;;;;16.93;15.30;;;20.30;99.90;;;;;;5031021;28;20186;-62
2021/07/17 08:13:07;;;;;;;17.27;15.10;;;20.30;99.90;;;;;;5029894;28;20188;-62
2021/07/17 08:15:33;;;;;;;17.40;15.70;;;20.20;99.90;;;;;;5030528;28;20220;-62
2021/07/17 08:17:59;;;;;;;15.33;13.83;;;20.30;99.90;;;;;;5028960;28;20226;-64
2021/07/17 08:20:25;;;;;;;15.83;14.27;;;20.30;99.90;;;;;;5012696;28;20291;-62
2021/07/17 08:22:51;;;;;;;14.53;13.23;;;20.30;99.90;;;;;;5026507;28;20214;-62
2021/07/17 08:25:17;;;;;;;15.67;14.30;;;20.20;99.90;;;;;;5024304;28;20435;-62
2021/07/17 08:27:42;;;;;;;16.93;15.43;;;20.20;99.90;;;;;;5029061;28;20182;-62
2021/07/17 08:30:11;;;;;;;16.70;15.00;;;20.20;99.90;;;;;;5024101;28;20903;-62
2021/07/17 08:32:37;;;;;;;17.57;15.77;;;20.10;99.90;;;;;;5030290;28;21085;-61
2021/07/17 08:35:02;;;;;;;17.83;16.10;;;20.10;99.90;;;;;;5029643;28;20448;-61
2021/07/17 08:37:28;;;;;;;17.87;16.30;;;20.20;99.90;;;;;;5030064;28;20474;-62
2021/07/17 08:39:53;;;;;;;19.70;17.90;;;20.30;99.90;;;;;;5031004;28;20592;-62
2021/07/17 08:42:20;;;;;;;18.23;16.43;;;20.30;99.90;;;;;;5026438;28;20741;-63
2021/07/17 08:44:48;;;;;;;19.27;17.40;;;20.30;99.90;;;;;;5029442;28;20537;-65
2021/07/17 08:47:16;;;;;;;19.67;17.77;;;20.30;99.90;;;;;;5029446;28;20536;-62
2021/07/17 08:49:44;;;;;;;19.90;17.60;;;20.30;99.90;;;;;;5024282;28;20494;-63
2021/07/17 08:52:10;;;;;;;19.77;17.77;;;20.20;99.90;;;;;;5034596;28;20527;-64
2021/07/17 08:54:39;;;;;;;19.60;17.60;;;20.20;99.90;;;;;;5025418;28;20449;-63
2021/07/17 08:57:09;;;;;;;20.95;17.33;;;20.20;99.90;;;;;;5029591;28;20473;-60
2021/07/17 08:59:36;;;;;;;20.20;17.93;;;20.20;99.90;;;;;;5026286;28;20180;-62
2021/07/17 09:02:01;;;;;;;22.23;19.13;;;20.20;99.90;;;;;;5029404;28;20432;-63
2021/07/17 09:04:27;;;;;;;21.40;18.73;;;20.20;99.90;;;;;;5028384;28;20438;-63
2021/07/17 09:06:53;;;;;;;25.50;19.90;;;20.20;99.90;;;;;;5029647;28;20289;-66
2021/07/17 09:09:29;;;;;;;21.15;18.98;;;20.20;99.90;;;;;;5030162;28;20188;-62
2021/07/17 09:11:55;;;;;;;24.17;20.02;;;20.20;99.90;;;;;;5029837;28;20192;-62
2021/07/17 09:14:38;;;;;;;20.63;18.67;;;20.20;99.90;;;;;;5019098;28;20254;-63
2021/07/17 09:17:04;;;;;;;21.50;19.20;;;20.20;99.90;;;;;;5027378;28;20711;-63
2021/07/17 09:19:30;;;;;;;23.00;19.83;;;20.20;99.90;;;;;;5029322;28;20525;-63
2021/07/17 09:21:56;;;;;;;24.60;20.70;;;20.20;99.90;;;;;;5029883;28;20794;-63
2021/07/17 09:24:21;;;;;;;23.27;20.77;;;20.20;99.90;;;;;;5029624;28;20240;-63
2021/07/17 09:26:53;;;;;;;22.70;20.20;;;20.30;99.90;;;;;;5016713;28;20198;-63
2021/07/17 09:29:19;;;;;;;26.57;20.90;;;20.30;99.90;;;;;;5029826;28;20190;-65
2021/07/17 09:31:54;;;;;;;24.77;22.07;;;20.30;99.90;;;;;;5029386;28;20468;-63
2021/07/17 09:34:23;;;;;;;23.40;21.10;;;20.30;99.90;;;;;;5027610;28;20946;-64
2021/07/17 09:37:00;;;;;;;26.40;22.30;;;20.20;99.90;;;;;;5028318;28;20460;-63
2021/07/17 09:39:40;;;;;;;38.63;26.77;;;20.20;99.90;;;;;;5028822;28;20426;-61
2021/07/17 09:42:08;;;;;;;33.00;27.20;;;20.10;99.90;;;;;;5018630;28;20436;-62
2021/07/17 09:44:36;;;;;;;32.87;27.10;;;20.10;99.90;;;;;;5025090;28;20423;-61
2021/07/17 09:47:13;;;;;;;35.50;26.37;;;20.20;99.90;;;;;;5027882;28;20441;-62
2021/07/17 09:49:38;;;;;;;33.93;26.17;;;20.20;99.90;;;;;;5028900;28;20930;-62
2021/07/17 09:52:16;;;;;;;32.23;26.43;;;20.20;99.90;;;;;;5028951;28;20478;-62
2021/07/17 09:55:00;;;;;;;29.83;26.63;;;20.30;99.90;;;;;;5022023;28;20175;-62
2021/07/17 09:57:30;;;;;;;33.55;26.48;;;20.30;99.90;;;;;;5028838;28;20421;-63
2021/07/17 10:00:08;;;;;;;33.80;28.20;;;20.30;99.90;;;;;;5027695;28;20185;-62
2021/07/17 10:02:39;;;;;;;32.20;26.27;;;20.20;99.90;;;;;;5028007;28;20491;-63
2021/07/17 10:05:07;;;;;;;43.43;30.30;;;20.30;99.90;;;;;;5028796;28;20756;-62
2021/07/17 10:07:33;;;;;;;39.93;31.70;;;20.30;99.90;;;;;;5026788;28;20429;-62
2021/07/17 10:09:59;;;;;;;43.37;31.07;;;20.30;99.90;;;;;;5029061;28;20471;-63
2021/07/17 10:12:42;;;;;;;40.43;31.47;;;20.30;99.90;;;;;;5028788;28;20624;-62
2021/07/17 10:15:15;;;;;;;40.87;31.70;;;20.30;99.90;;;;;;5024158;28;20942;-64
2021/07/17 10:17:45;;;;;;;45.40;32.67;;;20.30;99.90;;;;;;5027884;28;20487;-62
2021/07/17 10:20:13;;;;;;;45.93;33.47;;;20.40;99.90;;;;;;5028787;28;20420;-62
2021/07/17 10:22:39;;;;;;;41.97;32.07;;;20.40;99.90;;;;;;5025791;28;20462;-61
2021/07/17 10:25:07;;;;;;;48.73;33.40;;;20.40;99.90;;;;;;5010137;28;20429;-63
2021/07/17 10:27:35;;;;;;;47.30;32.87;;;20.50;99.90;;;;;;5022129;28;20624;-63
2021/07/17 10:30:07;;;;;;;46.70;33.23;;;20.50;99.90;;;;;;5027850;28;20436;-63
2021/07/17 10:32:33;;;;;;;43.00;31.97;;;20.50;99.90;;;;;;5024162;28;20495;-63
2021/07/17 10:34:59;;;;;;;40.80;31.23;;;20.50;99.90;;;;;;5028194;28;20463;-63
2021/07/17 10:37:29;;;;;;;41.90;30.60;;;20.60;99.90;;;;;;5027527;28;20440;-63
2021/07/17 10:40:13;;;;;;;40.30;29.00;;;20.70;99.90;;;;;;5022890;28;20196;-63
2021/07/17 10:42:44;;;;;;;35.50;28.70;;;20.70;99.90;;;;;;5023134;28;20524;-61
2021/07/17 10:45:10;;;;;;;40.58;29.05;;;20.80;99.90;;;;;;5022298;28;20779;-62
2021/07/17 10:47:41;;;;;;;38.73;30.37;;;20.80;99.90;;;;;;5027971;28;20194;-62
2021/07/17 10:50:12;;;;;;;35.53;27.67;;;20.80;99.90;;;;;;5022174;28;20429;-61
2021/07/17 10:52:39;;;;;;;33.33;26.67;;;20.80;99.90;;;;;;5027864;28;20444;-63
2021/07/17 10:55:30;;;;;;;40.73;29.27;;;20.80;99.90;;;;;;5027424;28;20450;-66
2021/07/17 10:58:00;;;;;;;39.73;29.50;;;20.80;99.90;;;;;;5021197;28;20453;-62
2021/07/17 11:00:48;;;;;;;42.13;31.07;;;20.80;99.90;;;;;;5021294;28;20433;-61
2021/07/17 11:03:32;;;;;;;41.50;30.95;;;20.90;99.90;;;;;;5023784;28;20800;-60
2021/07/17 11:06:27;;;;;;;41.37;30.70;;;20.90;99.90;;;;;;5027908;28;20194;-62
2021/07/17 11:08:54;;;;;;;48.25;31.75;;;21.00;99.90;;;;;;5018052;28;20421;-63
2021/07/17 11:11:30;;;;;;;44.73;31.87;;;21.10;99.90;;;;;;5026992;28;20190;-62
2021/07/17 11:14:17;;;;;;;44.93;34.27;;;21.10;99.90;;;;;;5027312;28;20494;-62
2021/07/17 11:16:44;;;;;;;49.60;32.70;;;21.10;99.90;;;;;;5026998;28;20476;-62
2021/07/17 11:19:28;;;;;;;46.07;32.33;;;21.10;99.90;;;;;;5028425;28;20477;-63
2021/07/17 11:21:56;;;;;;;46.05;32.70;;;21.10;99.90;;;;;;5031317;28;20420;-63
2021/07/17 11:24:26;;;;;;;48.30;34.43;;;21.10;99.90;;;;;;5028453;28;20192;-63
2021/07/17 11:27:11;;;;;;;43.97;32.00;;;21.10;99.90;;;;;;5031460;28;20424;-62
2021/07/17 11:29:40;;;;;;;47.90;34.10;;;21.10;99.90;;;;;;5025275;28;20447;-63
2021/07/17 11:32:08;;;;;;;49.73;35.47;;;21.10;99.90;;;;;;5031240;28;20419;-63
2021/07/17 11:34:35;;;;;;;54.87;34.33;;;21.00;99.90;;;;;;5030883;28;20416;-63
2021/07/17 11:37:06;;;;;;;55.20;36.83;;;21.00;99.90;;;;;;5031399;28;21010;-63
2021/07/17 11:39:33;;;;;;;49.97;35.40;;;21.00;99.90;;;;;;5030635;28;20417;-62
2021/07/17 11:42:00;;;;;;;51.58;35.35;;;21.00;99.90;;;;;;5031053;28;20409;-63
2021/07/17 11:44:27;;;;;;;51.40;34.30;;;21.10;99.90;;;;;;5030692;28;20193;-63
2021/07/17 11:46:53;;;;;;;51.43;34.00;;;21.20;99.90;;;;;;5030223;28;20425;-62
2021/07/17 11:49:18;;;;;;;52.13;35.67;;;21.20;99.90;;;;;;5029747;28;20425;-62
2021/07/17 11:51:48;;;;;;;56.33;36.30;;;21.30;99.90;;;;;;5012742;28;20648;-62
2021/07/17 11:54:26;;;;;;;48.97;36.40;;;21.30;99.90;;;;;;5029372;28;20543;-66
2021/07/17 11:57:12;;;;;;;50.67;35.37;;;21.40;99.90;;;;;;5030434;28;20469;-61
2021/07/17 11:59:43;;;;;;;47.00;35.10;;;21.50;99.90;;;;;;5029844;28;20409;-60
2021/07/17 12:02:14;;;;;;;45.93;35.17;;;21.50;99.90;;;;;;5030746;28;20824;-62
2021/07/17 12:04:41;;;;;;;47.23;35.33;;;21.50;99.90;;;;;;5029762;28;20425;-62
2021/07/17 12:07:13;;;;;;;50.43;35.10;;;21.60;99.90;;;;;;5013482;28;20417;-66
2021/07/17 12:09:42;;;;;;;42.57;33.00;;;21.60;99.90;;;;;;5029568;28;20919;-62
2021/07/17 12:12:22;;;;;;;45.53;32.77;;;21.70;99.90;;;;;;5029142;28;20822;-62
2021/07/17 12:15:15;;;;;;;47.40;34.70;;;21.60;99.90;;;;;;5028399;28;20497;-63
2021/07/17 12:17:51;;;;;;;47.37;34.37;;;21.60;99.90;;;;;;5021620;28;20233;-63
2021/07/17 12:20:40;;;;;;;44.37;35.87;;;21.60;99.90;;;;;;5028746;28;20406;-62
2021/07/17 12:23:09;;;;;;;49.73;35.67;;;21.50;99.90;;;;;;5030224;28;20468;-63
2021/07/17 12:25:37;;;;;;;46.97;35.28;;;21.50;99.90;;;;;;5028455;28;20475;-63
2021/07/17 12:28:14;;;;;;;48.63;36.13;;;21.50;99.90;;;;;;5030410;28;20189;-65
2021/07/17 12:30:45;;;;;;;40.13;33.77;;;21.50;99.90;;;;;;5026757;28;20496;-64